Disclaimer

Please do not use the information listed here in-flight or in-navigation, as they are not provided to us by the airports but are provided by volunteers, so they might be outdated.

Search


Regions


Airport information page

Radio informations:
INFO - 118.35 MHz

Airport informations:
Latitude: 33° 26' 07.36" N
Longitude: 048° 16' 58.40" E
Elevation: 3782 feet - 1153 meters
Operating hours: From sunrise to sunset (SR-SS)
Operating agency: Civil government, landing fees and diplomatic clearance may be required
Timezone: UTC+3:30
Fuel: Jet A1, without icing nhibitor.

Runway information:
11/29 - 10498 x 148 feet< - >3200 x 45 meters

Recent METARs:
OICK 151200Z 14006KT 8000 RA FEW030CB SCT035 OVC080 12/11 Q1018
OICK 151230Z 36004KT 7000 RA FEW030CB SCT035 OVC080 12/11 Q1019
OICK 151230Z 36004KT 7000 RA FEW030CB SCT035 OVC080 12/11 Q1019

Airport on the map: